sensor_id;sensor_type;location;lat;lon;timestamp;P1;durP1;ratioP1;P2;durP2;ratioP2
64641;SDS011;59936;51.490;5.436;2023-04-08T00:01:12;23.00;;;10.90;;
64641;SDS011;59936;51.490;5.436;2023-04-08T00:03:38;29.90;;;10.90;;
64641;SDS011;59936;51.490;5.436;2023-04-08T00:08:30;18.40;;;9.35;;
64641;SDS011;59936;51.490;5.436;2023-04-08T00:13:21;17.80;;;9.60;;
64641;SDS011;59936;51.490;5.436;2023-04-08T00:18:13;22.85;;;11.60;;
64641;SDS011;59936;51.490;5.436;2023-04-08T00:20:41;25.10;;;13.00;;
64641;SDS011;59936;51.490;5.436;2023-04-08T00:23:07;25.90;;;12.80;;
64641;SDS011;59936;51.490;5.436;2023-04-08T00:25:33;23.30;;;12.60;;
64641;SDS011;59936;51.490;5.436;2023-04-08T00:27:59;24.30;;;12.50;;
64641;SDS011;59936;51.490;5.436;2023-04-08T00:32:51;18.70;;;12.10;;
64641;SDS011;59936;51.490;5.436;2023-04-08T00:37:42;19.70;;;12.60;;
64641;SDS011;59936;51.490;5.436;2023-04-08T00:42:34;22.60;;;12.90;;
64641;SDS011;59936;51.490;5.436;2023-04-08T00:45:00;34.50;;;14.80;;
64641;SDS011;59936;51.490;5.436;2023-04-08T00:47:26;26.40;;;14.90;;
64641;SDS011;59936;51.490;5.436;2023-04-08T00:49:51;25.30;;;14.60;;
64641;SDS011;59936;51.490;5.436;2023-04-08T00:54:43;32.10;;;15.45;;
64641;SDS011;59936;51.490;5.436;2023-04-08T00:59:34;28.50;;;14.80;;
64641;SDS011;59936;51.490;5.436;2023-04-08T01:10:14;34.00;;;18.20;;
64641;SDS011;59936;51.490;5.436;2023-04-08T01:12:44;38.70;;;17.00;;
64641;SDS011;59936;51.490;5.436;2023-04-08T01:15:16;38.70;;;19.00;;
64641;SDS011;59936;51.490;5.436;2023-04-08T01:17:42;38.50;;;19.50;;
64641;SDS011;59936;51.490;5.436;2023-04-08T01:20:10;36.40;;;18.40;;
64641;SDS011;59936;51.490;5.436;2023-04-08T01:25:32;40.70;;;18.90;;
64641;SDS011;59936;51.490;5.436;2023-04-08T01:28:02;45.20;;;20.50;;
64641;SDS011;59936;51.490;5.436;2023-04-08T01:30:34;41.80;;;19.70;;
64641;SDS011;59936;51.490;5.436;2023-04-08T01:33:03;37.80;;;18.30;;
64641;SDS011;59936;51.490;5.436;2023-04-08T01:35:30;48.80;;;21.40;;
64641;SDS011;59936;51.490;5.436;2023-04-08T01:40:22;39.90;;;17.80;;
64641;SDS011;59936;51.490;5.436;2023-04-08T01:42:48;52.20;;;21.60;;
64641;SDS011;59936;51.490;5.436;2023-04-08T01:45:16;38.90;;;20.10;;
64641;SDS011;59936;51.490;5.436;2023-04-08T01:47:46;39.70;;;19.60;;
64641;SDS011;59936;51.490;5.436;2023-04-08T01:50:13;44.30;;;20.30;;
64641;SDS011;59936;51.490;5.436;2023-04-08T01:52:40;43.80;;;20.30;;
64641;SDS011;59936;51.490;5.436;2023-04-08T01:55:08;49.30;;;20.30;;
64641;SDS011;59936;51.490;5.436;2023-04-08T01:57:35;48.90;;;22.70;;
64641;SDS011;59936;51.490;5.436;2023-04-08T02:00:09;49.20;;;23.60;;
64641;SDS011;59936;51.490;5.436;2023-04-08T02:02:37;50.50;;;22.90;;
64641;SDS011;59936;51.490;5.436;2023-04-08T02:05:07;43.80;;;22.50;;
64641;SDS011;59936;51.490;5.436;2023-04-08T02:07:33;51.00;;;25.00;;
64641;SDS011;59936;51.490;5.436;2023-04-08T02:09:59;55.90;;;22.40;;
64641;SDS011;59936;51.490;5.436;2023-04-08T02:12:25;49.40;;;22.10;;
64641;SDS011;59936;51.490;5.436;2023-04-08T02:14:52;43.90;;;20.90;;
64641;SDS011;59936;51.490;5.436;2023-04-08T02:19:52;44.70;;;23.60;;
64641;SDS011;59936;51.490;5.436;2023-04-08T02:22:37;48.50;;;23.00;;
64641;SDS011;59936;51.490;5.436;2023-04-08T02:25:09;41.30;;;21.00;;
64641;SDS011;59936;51.490;5.436;2023-04-08T02:27:38;45.30;;;21.70;;
64641;SDS011;59936;51.490;5.436;2023-04-08T02:30:04;53.90;;;23.10;;
64641;SDS011;59936;51.490;5.436;2023-04-08T02:32:31;49.70;;;22.90;;
64641;SDS011;59936;51.490;5.436;2023-04-08T02:34:59;48.20;;;22.70;;
64641;SDS011;59936;51.490;5.436;2023-04-08T02:37:29;51.00;;;23.30;;
64641;SDS011;59936;51.490;5.436;2023-04-08T02:39:56;41.50;;;23.40;;
64641;SDS011;59936;51.490;5.436;2023-04-08T02:42:22;47.90;;;22.50;;
64641;SDS011;59936;51.490;5.436;2023-04-08T02:47:13;40.10;;;19.60;;
64641;SDS011;59936;51.490;5.436;2023-04-08T02:52:05;54.50;;;22.15;;
64641;SDS011;59936;51.490;5.436;2023-04-08T02:56:56;38.25;;;20.65;;
64641;SDS011;59936;51.490;5.436;2023-04-08T03:01:48;49.60;;;20.30;;
64641;SDS011;59936;51.490;5.436;2023-04-08T03:04:14;42.60;;;22.70;;
64641;SDS011;59936;51.490;5.436;2023-04-08T03:06:39;48.70;;;23.30;;
64641;SDS011;59936;51.490;5.436;2023-04-08T03:11:31;42.95;;;20.30;;
64641;SDS011;59936;51.490;5.436;2023-04-08T03:16:22;41.35;;;20.60;;
64641;SDS011;59936;51.490;5.436;2023-04-08T03:21:14;43.70;;;20.30;;
64641;SDS011;59936;51.490;5.436;2023-04-08T03:23:40;41.20;;;22.70;;
64641;SDS011;59936;51.490;5.436;2023-04-08T03:26:06;55.10;;;24.20;;
64641;SDS011;59936;51.490;5.436;2023-04-08T03:30:57;54.90;;;25.35;;
64641;SDS011;59936;51.490;5.436;2023-04-08T03:35:49;47.45;;;21.50;;
64641;SDS011;59936;51.490;5.436;2023-04-08T03:40:40;49.30;;;21.20;;
64641;SDS011;59936;51.490;5.436;2023-04-08T03:45:32;38.30;;;21.30;;
64641;SDS011;59936;51.490;5.436;2023-04-08T03:50:23;43.15;;;21.70;;
64641;SDS011;59936;51.490;5.436;2023-04-08T03:55:15;51.40;;;23.05;;
64641;SDS011;59936;51.490;5.436;2023-04-08T04:00:08;52.40;;;24.90;;
64641;SDS011;59936;51.490;5.436;2023-04-08T04:02:34;44.20;;;24.00;;
64641;SDS011;59936;51.490;5.436;2023-04-08T04:05:00;49.90;;;25.70;;
64641;SDS011;59936;51.490;5.436;2023-04-08T04:07:26;51.60;;;24.80;;
64641;SDS011;59936;51.490;5.436;2023-04-08T04:12:18;70.45;;;26.50;;
64641;SDS011;59936;51.490;5.436;2023-04-08T04:17:09;49.60;;;22.90;;
64641;SDS011;59936;51.490;5.436;2023-04-08T04:22:01;49.35;;;23.10;;
64641;SDS011;59936;51.490;5.436;2023-04-08T04:26:52;49.40;;;22.50;;
64641;SDS011;59936;51.490;5.436;2023-04-08T04:31:44;59.55;;;22.80;;
64641;SDS011;59936;51.490;5.436;2023-04-08T04:36:35;59.25;;;23.90;;
64641;SDS011;59936;51.490;5.436;2023-04-08T04:41:27;53.65;;;23.30;;
64641;SDS011;59936;51.490;5.436;2023-04-08T04:46:18;68.50;;;23.40;;
64641;SDS011;59936;51.490;5.436;2023-04-08T04:51:09;84.05;;;26.35;;
64641;SDS011;59936;51.490;5.436;2023-04-08T04:56:01;87.65;;;26.45;;
64641;SDS011;59936;51.490;5.436;2023-04-08T05:00:53;52.00;;;22.50;;
64641;SDS011;59936;51.490;5.436;2023-04-08T05:03:18;60.10;;;25.70;;
64641;SDS011;59936;51.490;5.436;2023-04-08T05:08:14;56.40;;;22.50;;
64641;SDS011;59936;51.490;5.436;2023-04-08T05:10:40;50.80;;;24.10;;
64641;SDS011;59936;51.490;5.436;2023-04-08T05:13:06;58.50;;;24.50;;
64641;SDS011;59936;51.490;5.436;2023-04-08T05:17:57;68.60;;;24.90;;
64641;SDS011;59936;51.490;5.436;2023-04-08T05:22:49;65.05;;;27.00;;
64641;SDS011;59936;51.490;5.436;2023-04-08T05:27:40;60.70;;;26.25;;
64641;SDS011;59936;51.490;5.436;2023-04-08T05:32:32;48.00;;;23.20;;
64641;SDS011;59936;51.490;5.436;2023-04-08T05:35:00;58.20;;;24.50;;
64641;SDS011;59936;51.490;5.436;2023-04-08T05:37:27;65.40;;;26.20;;
64641;SDS011;59936;51.490;5.436;2023-04-08T05:39:53;59.20;;;22.80;;
64641;SDS011;59936;51.490;5.436;2023-04-08T05:42:18;56.00;;;23.10;;
64641;SDS011;59936;51.490;5.436;2023-04-08T05:47:10;66.25;;;21.90;;
64641;SDS011;59936;51.490;5.436;2023-04-08T05:52:01;47.50;;;20.05;;
64641;SDS011;59936;51.490;5.436;2023-04-08T05:56:53;41.60;;;18.60;;
64641;SDS011;59936;51.490;5.436;2023-04-08T05:59:19;34.70;;;17.10;;
64641;SDS011;59936;51.490;5.436;2023-04-08T06:01:45;37.70;;;19.10;;
64641;SDS011;59936;51.490;5.436;2023-04-08T06:06:37;46.80;;;18.35;;
64641;SDS011;59936;51.490;5.436;2023-04-08T06:09:03;43.70;;;21.40;;
64641;SDS011;59936;51.490;5.436;2023-04-08T06:11:29;44.80;;;21.40;;
64641;SDS011;59936;51.490;5.436;2023-04-08T06:13:54;39.20;;;19.30;;
64641;SDS011;59936;51.490;5.436;2023-04-08T06:16:20;40.70;;;19.80;;
64641;SDS011;59936;51.490;5.436;2023-04-08T06:18:46;49.40;;;24.20;;
64641;SDS011;59936;51.490;5.436;2023-04-08T06:21:13;60.90;;;24.50;;
64641;SDS011;59936;51.490;5.436;2023-04-08T06:23:38;48.90;;;23.40;;
64641;SDS011;59936;51.490;5.436;2023-04-08T06:26:04;44.10;;;22.80;;
64641;SDS011;59936;51.490;5.436;2023-04-08T06:28:30;55.30;;;23.40;;
64641;SDS011;59936;51.490;5.436;2023-04-08T06:30:57;40.20;;;20.30;;
64641;SDS011;59936;51.490;5.436;2023-04-08T06:33:23;40.70;;;22.60;;
64641;SDS011;59936;51.490;5.436;2023-04-08T06:35:49;37.00;;;20.80;;
64641;SDS011;59936;51.490;5.436;2023-04-08T06:38:15;34.90;;;20.50;;
64641;SDS011;59936;51.490;5.436;2023-04-08T06:40:41;37.00;;;19.60;;
64641;SDS011;59936;51.490;5.436;2023-04-08T06:43:07;32.50;;;19.70;;
64641;SDS011;59936;51.490;5.436;2023-04-08T06:45:33;35.60;;;18.00;;
64641;SDS011;59936;51.490;5.436;2023-04-08T06:47:59;33.80;;;19.00;;
64641;SDS011;59936;51.490;5.436;2023-04-08T06:50:25;34.20;;;20.30;;
64641;SDS011;59936;51.490;5.436;2023-04-08T06:52:51;30.00;;;18.20;;
64641;SDS011;59936;51.490;5.436;2023-04-08T06:57:42;28.90;;;18.25;;
64641;SDS011;59936;51.490;5.436;2023-04-08T07:02:34;27.20;;;17.20;;
64641;SDS011;59936;51.490;5.436;2023-04-08T07:05:00;30.60;;;18.30;;
64641;SDS011;59936;51.490;5.436;2023-04-08T07:07:26;26.50;;;18.10;;
64641;SDS011;59936;51.490;5.436;2023-04-08T07:12:17;33.75;;;18.55;;
64641;SDS011;59936;51.490;5.436;2023-04-08T07:17:09;25.55;;;16.75;;
64641;SDS011;59936;51.490;5.436;2023-04-08T07:22:00;30.10;;;20.60;;
64641;SDS011;59936;51.490;5.436;2023-04-08T07:26:52;29.45;;;17.95;;
64641;SDS011;59936;51.490;5.436;2023-04-08T07:31:43;32.35;;;18.20;;
64641;SDS011;59936;51.490;5.436;2023-04-08T07:36:35;32.60;;;21.70;;
64641;SDS011;59936;51.490;5.436;2023-04-08T07:39:01;34.50;;;22.40;;
64641;SDS011;59936;51.490;5.436;2023-04-08T07:43:52;25.80;;;16.80;;
64641;SDS011;59936;51.490;5.436;2023-04-08T07:48:44;32.55;;;21.00;;
64641;SDS011;59936;51.490;5.436;2023-04-08T07:53:35;29.10;;;17.85;;
64641;SDS011;59936;51.490;5.436;2023-04-08T07:56:02;26.10;;;18.70;;
64641;SDS011;59936;51.490;5.436;2023-04-08T08:00:54;24.60;;;16.70;;
64641;SDS011;59936;51.490;5.436;2023-04-08T08:05:45;19.25;;;14.45;;
64641;SDS011;59936;51.490;5.436;2023-04-08T08:10:37;26.15;;;17.15;;
64641;SDS011;59936;51.490;5.436;2023-04-08T08:13:03;29.00;;;19.40;;
64641;SDS011;59936;51.490;5.436;2023-04-08T08:15:30;32.30;;;21.10;;
64641;SDS011;59936;51.490;5.436;2023-04-08T08:20:21;24.25;;;16.80;;
64641;SDS011;59936;51.490;5.436;2023-04-08T08:25:13;21.55;;;15.95;;
64641;SDS011;59936;51.490;5.436;2023-04-08T08:30:04;22.05;;;15.45;;
64641;SDS011;59936;51.490;5.436;2023-04-08T08:32:31;29.60;;;19.80;;
64641;SDS011;59936;51.490;5.436;2023-04-08T08:37:22;24.65;;;16.30;;
64641;SDS011;59936;51.490;5.436;2023-04-08T08:42:19;22.20;;;15.95;;
64641;SDS011;59936;51.490;5.436;2023-04-08T08:44:47;24.80;;;17.40;;
64641;SDS011;59936;51.490;5.436;2023-04-08T08:47:14;21.90;;;16.00;;
64641;SDS011;59936;51.490;5.436;2023-04-08T08:49:43;23.30;;;16.10;;
64641;SDS011;59936;51.490;5.436;2023-04-08T08:52:09;24.50;;;18.00;;
64641;SDS011;59936;51.490;5.436;2023-04-08T08:54:36;24.70;;;17.60;;
64641;SDS011;59936;51.490;5.436;2023-04-08T08:57:02;26.90;;;19.00;;
64641;SDS011;59936;51.490;5.436;2023-04-08T09:01:54;24.20;;;16.05;;
64641;SDS011;59936;51.490;5.436;2023-04-08T09:06:46;29.50;;;19.60;;
64641;SDS011;59936;51.490;5.436;2023-04-08T09:09:13;24.10;;;16.90;;
64641;SDS011;59936;51.490;5.436;2023-04-08T09:14:27;26.30;;;16.30;;
64641;SDS011;59936;51.490;5.436;2023-04-08T09:16:51;28.00;;;19.20;;
64641;SDS011;59936;51.490;5.436;2023-04-08T09:21:43;34.50;;;21.40;;
64641;SDS011;59936;51.490;5.436;2023-04-08T09:26:51;24.80;;;18.10;;
64641;SDS011;59936;51.490;5.436;2023-04-08T09:31:43;24.95;;;18.20;;
64641;SDS011;59936;51.490;5.436;2023-04-08T09:36:35;28.90;;;19.70;;
64641;SDS011;59936;51.490;5.436;2023-04-08T09:41:27;28.75;;;20.10;;
64641;SDS011;59936;51.490;5.436;2023-04-08T09:43:53;31.60;;;21.20;;
64641;SDS011;59936;51.490;5.436;2023-04-08T09:46:39;28.70;;;19.80;;
64641;SDS011;59936;51.490;5.436;2023-04-08T09:52:12;31.40;;;23.30;;
64641;SDS011;59936;51.490;5.436;2023-04-08T09:54:52;30.00;;;21.60;;
64641;SDS011;59936;51.490;5.436;2023-04-08T10:00:15;31.20;;;22.30;;
64641;SDS011;59936;51.490;5.436;2023-04-08T10:05:19;26.90;;;20.50;;
64641;SDS011;59936;51.490;5.436;2023-04-08T10:07:47;24.90;;;18.20;;
64641;SDS011;59936;51.490;5.436;2023-04-08T10:10:13;26.70;;;20.80;;
64641;SDS011;59936;51.490;5.436;2023-04-08T10:12:39;28.50;;;21.60;;
64641;SDS011;59936;51.490;5.436;2023-04-08T10:15:21;20.60;;;16.30;;
64641;SDS011;59936;51.490;5.436;2023-04-08T10:23:00;22.20;;;18.60;;
64641;SDS011;59936;51.490;5.436;2023-04-08T10:25:29;22.00;;;17.10;;
64641;SDS011;59936;51.490;5.436;2023-04-08T10:30:52;21.10;;;16.60;;
64641;SDS011;59936;51.490;5.436;2023-04-08T10:33:21;23.20;;;18.70;;
64641;SDS011;59936;51.490;5.436;2023-04-08T10:35:52;20.90;;;17.20;;
64641;SDS011;59936;51.490;5.436;2023-04-08T10:38:20;21.10;;;17.50;;
64641;SDS011;59936;51.490;5.436;2023-04-08T10:40:46;21.50;;;17.80;;
64641;SDS011;59936;51.490;5.436;2023-04-08T10:43:13;22.30;;;18.30;;
64641;SDS011;59936;51.490;5.436;2023-04-08T10:45:40;23.80;;;18.20;;
64641;SDS011;59936;51.490;5.436;2023-04-08T10:48:10;24.10;;;20.00;;
64641;SDS011;59936;51.490;5.436;2023-04-08T10:50:37;19.70;;;16.90;;
64641;SDS011;59936;51.490;5.436;2023-04-08T10:53:04;21.90;;;17.80;;
64641;SDS011;59936;51.490;5.436;2023-04-08T10:55:30;18.80;;;14.20;;
64641;SDS011;59936;51.490;5.436;2023-04-08T11:00:33;16.40;;;14.60;;
64641;SDS011;59936;51.490;5.436;2023-04-08T11:03:08;21.10;;;18.00;;
64641;SDS011;59936;51.490;5.436;2023-04-08T11:05:35;21.40;;;18.50;;
64641;SDS011;59936;51.490;5.436;2023-04-08T11:08:03;19.40;;;16.80;;
64641;SDS011;59936;51.490;5.436;2023-04-08T11:10:29;24.00;;;19.30;;
64641;SDS011;59936;51.490;5.436;2023-04-08T11:12:55;22.10;;;18.10;;
64641;SDS011;59936;51.490;5.436;2023-04-08T11:15:25;20.40;;;18.20;;
64641;SDS011;59936;51.490;5.436;2023-04-08T11:17:54;18.20;;;16.20;;
64641;SDS011;59936;51.490;5.436;2023-04-08T11:20:20;18.70;;;16.40;;
64641;SDS011;59936;51.490;5.436;2023-04-08T11:22:47;21.20;;;18.50;;
64641;SDS011;59936;51.490;5.436;2023-04-08T11:25:13;19.40;;;17.30;;
64641;SDS011;59936;51.490;5.436;2023-04-08T11:27:39;19.90;;;17.70;;
64641;SDS011;59936;51.490;5.436;2023-04-08T11:30:06;20.50;;;18.30;;
64641;SDS011;59936;51.490;5.436;2023-04-08T11:32:34;21.40;;;18.80;;
64641;SDS011;59936;51.490;5.436;2023-04-08T11:35:03;21.30;;;18.80;;
64641;SDS011;59936;51.490;5.436;2023-04-08T11:37:39;18.00;;;15.80;;
64641;SDS011;59936;51.490;5.436;2023-04-08T11:40:09;20.60;;;18.10;;
64641;SDS011;59936;51.490;5.436;2023-04-08T11:42:36;21.00;;;18.80;;
64641;SDS011;59936;51.490;5.436;2023-04-08T11:45:13;20.80;;;18.70;;
64641;SDS011;59936;51.490;5.436;2023-04-08T11:47:41;17.90;;;16.00;;
64641;SDS011;59936;51.490;5.436;2023-04-08T11:50:08;20.40;;;17.30;;
64641;SDS011;59936;51.490;5.436;2023-04-08T11:52:44;20.60;;;17.60;;
64641;SDS011;59936;51.490;5.436;2023-04-08T11:55:32;19.30;;;17.20;;
64641;SDS011;59936;51.490;5.436;2023-04-08T11:58:01;21.10;;;18.80;;
64641;SDS011;59936;51.490;5.436;2023-04-08T12:00:28;19.20;;;17.20;;
64641;SDS011;59936;51.490;5.436;2023-04-08T12:02:55;19.20;;;17.20;;
64641;SDS011;59936;51.490;5.436;2023-04-08T12:05:21;18.40;;;15.70;;
64641;SDS011;59936;51.490;5.436;2023-04-08T12:07:47;18.70;;;14.50;;
64641;SDS011;59936;51.490;5.436;2023-04-08T12:10:12;15.50;;;13.80;;
64641;SDS011;59936;51.490;5.436;2023-04-08T12:12:39;18.20;;;16.20;;
64641;SDS011;59936;51.490;5.436;2023-04-08T12:15:05;17.40;;;15.50;;
64641;SDS011;59936;51.490;5.436;2023-04-08T12:17:32;16.70;;;14.40;;
64641;SDS011;59936;51.490;5.436;2023-04-08T12:19:58;16.80;;;15.00;;
64641;SDS011;59936;51.490;5.436;2023-04-08T12:22:24;17.50;;;15.70;;
64641;SDS011;59936;51.490;5.436;2023-04-08T12:24:50;19.40;;;17.40;;
64641;SDS011;59936;51.490;5.436;2023-04-08T12:27:16;19.30;;;14.20;;
64641;SDS011;59936;51.490;5.436;2023-04-08T12:29:42;15.80;;;14.00;;
64641;SDS011;59936;51.490;5.436;2023-04-08T12:32:08;18.10;;;16.20;;
64641;SDS011;59936;51.490;5.436;2023-04-08T12:34:34;17.00;;;15.30;;
64641;SDS011;59936;51.490;5.436;2023-04-08T12:37:00;17.40;;;15.60;;
64641;SDS011;59936;51.490;5.436;2023-04-08T12:39:26;15.40;;;13.00;;
64641;SDS011;59936;51.490;5.436;2023-04-08T12:41:52;17.30;;;14.00;;
64641;SDS011;59936;51.490;5.436;2023-04-08T12:44:18;15.20;;;13.70;;
64641;SDS011;59936;51.490;5.436;2023-04-08T12:46:43;16.70;;;14.90;;
64641;SDS011;59936;51.490;5.436;2023-04-08T12:49:09;14.10;;;12.50;;
64641;SDS011;59936;51.490;5.436;2023-04-08T12:51:35;12.70;;;11.40;;
64641;SDS011;59936;51.490;5.436;2023-04-08T12:54:01;15.40;;;13.90;;
64641;SDS011;59936;51.490;5.436;2023-04-08T12:56:27;13.40;;;12.10;;
64641;SDS011;59936;51.490;5.436;2023-04-08T12:58:53;15.30;;;13.70;;
64641;SDS011;59936;51.490;5.436;2023-04-08T13:01:19;13.20;;;11.80;;
64641;SDS011;59936;51.490;5.436;2023-04-08T13:03:45;14.50;;;12.90;;
64641;SDS011;59936;51.490;5.436;2023-04-08T13:06:11;17.70;;;13.80;;
64641;SDS011;59936;51.490;5.436;2023-04-08T13:08:37;15.30;;;12.80;;
64641;SDS011;59936;51.490;5.436;2023-04-08T13:11:02;14.00;;;12.60;;
64641;SDS011;59936;51.490;5.436;2023-04-08T13:13:28;15.30;;;13.70;;
64641;SDS011;59936;51.490;5.436;2023-04-08T13:15:54;15.40;;;13.00;;
64641;SDS011;59936;51.490;5.436;2023-04-08T13:18:20;14.70;;;13.20;;
64641;SDS011;59936;51.490;5.436;2023-04-08T13:20:46;15.60;;;13.70;;
64641;SDS011;59936;51.490;5.436;2023-04-08T13:23:12;43.90;;;14.20;;
64641;SDS011;59936;51.490;5.436;2023-04-08T13:25:38;14.80;;;12.50;;
64641;SDS011;59936;51.490;5.436;2023-04-08T13:28:04;13.30;;;11.90;;
64641;SDS011;59936;51.490;5.436;2023-04-08T13:30:30;16.20;;;13.60;;
64641;SDS011;59936;51.490;5.436;2023-04-08T13:32:55;15.40;;;13.70;;
64641;SDS011;59936;51.490;5.436;2023-04-08T13:35:21;11.90;;;10.70;;
64641;SDS011;59936;51.490;5.436;2023-04-08T13:37:47;17.00;;;13.30;;
64641;SDS011;59936;51.490;5.436;2023-04-08T13:40:13;15.80;;;14.20;;
64641;SDS011;59936;51.490;5.436;2023-04-08T13:42:39;17.10;;;14.90;;
64641;SDS011;59936;51.490;5.436;2023-04-08T13:45:05;17.80;;;15.50;;
64641;SDS011;59936;51.490;5.436;2023-04-08T13:47:31;18.60;;;16.60;;
64641;SDS011;59936;51.490;5.436;2023-04-08T13:49:57;16.50;;;14.80;;
64641;SDS011;59936;51.490;5.436;2023-04-08T13:52:23;20.10;;;16.60;;
64641;SDS011;59936;51.490;5.436;2023-04-08T13:54:49;17.10;;;14.90;;
64641;SDS011;59936;51.490;5.436;2023-04-08T13:57:14;18.10;;;15.10;;
64641;SDS011;59936;51.490;5.436;2023-04-08T13:59:40;19.00;;;17.00;;
64641;SDS011;59936;51.490;5.436;2023-04-08T14:02:06;17.80;;;16.00;;
64641;SDS011;59936;51.490;5.436;2023-04-08T14:04:32;20.80;;;16.60;;
64641;SDS011;59936;51.490;5.436;2023-04-08T14:06:58;19.30;;;16.70;;
64641;SDS011;59936;51.490;5.436;2023-04-08T14:09:24;19.00;;;15.10;;
64641;SDS011;59936;51.490;5.436;2023-04-08T14:11:50;17.70;;;15.80;;
64641;SDS011;59936;51.490;5.436;2023-04-08T14:14:16;19.40;;;16.10;;
64641;SDS011;59936;51.490;5.436;2023-04-08T14:16:42;18.00;;;16.10;;
64641;SDS011;59936;51.490;5.436;2023-04-08T14:19:08;18.50;;;16.50;;
64641;SDS011;59936;51.490;5.436;2023-04-08T14:21:33;17.80;;;15.90;;
64641;SDS011;59936;51.490;5.436;2023-04-08T14:23:59;17.70;;;15.90;;
64641;SDS011;59936;51.490;5.436;2023-04-08T14:26:25;20.30;;;17.60;;
64641;SDS011;59936;51.490;5.436;2023-04-08T14:28:51;22.80;;;17.40;;
64641;SDS011;59936;51.490;5.436;2023-04-08T14:31:17;19.90;;;16.70;;
64641;SDS011;59936;51.490;5.436;2023-04-08T14:33:43;19.90;;;17.80;;
64641;SDS011;59936;51.490;5.436;2023-04-08T14:36:09;19.40;;;15.80;;
64641;SDS011;59936;51.490;5.436;2023-04-08T14:38:35;18.00;;;15.20;;
64641;SDS011;59936;51.490;5.436;2023-04-08T14:41:01;16.80;;;15.00;;
64641;SDS011;59936;51.490;5.436;2023-04-08T14:43:27;16.30;;;12.30;;
64641;SDS011;59936;51.490;5.436;2023-04-08T14:45:53;14.80;;;12.40;;
64641;SDS011;59936;51.490;5.436;2023-04-08T14:48:19;13.30;;;11.60;;
64641;SDS011;59936;51.490;5.436;2023-04-08T14:50:45;14.20;;;11.00;;
64641;SDS011;59936;51.490;5.436;2023-04-08T14:55:36;16.10;;;11.30;;
64641;SDS011;59936;51.490;5.436;2023-04-08T14:58:03;13.20;;;10.90;;
64641;SDS011;59936;51.490;5.436;2023-04-08T15:00:29;12.10;;;10.40;;
64641;SDS011;59936;51.490;5.436;2023-04-08T15:02:55;12.80;;;10.20;;
64641;SDS011;59936;51.490;5.436;2023-04-08T15:05:21;12.70;;;9.60;;
64641;SDS011;59936;51.490;5.436;2023-04-08T15:07:47;12.00;;;10.40;;
64641;SDS011;59936;51.490;5.436;2023-04-08T15:10:13;14.80;;;12.30;;
64641;SDS011;59936;51.490;5.436;2023-04-08T15:12:39;12.60;;;10.70;;
64641;SDS011;59936;51.490;5.436;2023-04-08T15:15:05;12.50;;;10.00;;
64641;SDS011;59936;51.490;5.436;2023-04-08T15:17:31;12.20;;;10.60;;
64641;SDS011;59936;51.490;5.436;2023-04-08T15:19:57;11.70;;;10.00;;
64641;SDS011;59936;51.490;5.436;2023-04-08T15:22:23;14.90;;;11.80;;
64641;SDS011;59936;51.490;5.436;2023-04-08T15:24:49;12.40;;;11.10;;
64641;SDS011;59936;51.490;5.436;2023-04-08T15:27:14;12.20;;;11.00;;
64641;SDS011;59936;51.490;5.436;2023-04-08T15:29:40;12.40;;;11.10;;
64641;SDS011;59936;51.490;5.436;2023-04-08T15:32:06;12.70;;;11.40;;
64641;SDS011;59936;51.490;5.436;2023-04-08T15:34:32;14.60;;;10.80;;
64641;SDS011;59936;51.490;5.436;2023-04-08T15:36:58;12.50;;;11.00;;
64641;SDS011;59936;51.490;5.436;2023-04-08T15:39:24;12.60;;;11.30;;
64641;SDS011;59936;51.490;5.436;2023-04-08T15:41:50;13.00;;;10.10;;
64641;SDS011;59936;51.490;5.436;2023-04-08T15:44:16;14.50;;;10.30;;
64641;SDS011;59936;51.490;5.436;2023-04-08T15:46:42;11.10;;;9.70;;
64641;SDS011;59936;51.490;5.436;2023-04-08T15:49:07;14.20;;;10.60;;
64641;SDS011;59936;51.490;5.436;2023-04-08T15:51:33;11.60;;;10.40;;
64641;SDS011;59936;51.490;5.436;2023-04-08T15:53:59;5.10;;;4.00;;
64641;SDS011;59936;51.490;5.436;2023-04-08T15:56:25;13.10;;;11.70;;
64641;SDS011;59936;51.490;5.436;2023-04-08T15:58:51;13.60;;;11.40;;
64641;SDS011;59936;51.490;5.436;2023-04-08T16:01:17;13.30;;;11.60;;
64641;SDS011;59936;51.490;5.436;2023-04-08T16:03:43;13.00;;;10.50;;
64641;SDS011;59936;51.490;5.436;2023-04-08T16:06:09;11.70;;;10.50;;
64641;SDS011;59936;51.490;5.436;2023-04-08T16:08:35;17.90;;;11.90;;
64641;SDS011;59936;51.490;5.436;2023-04-08T16:11:01;13.70;;;11.50;;
64641;SDS011;59936;51.490;5.436;2023-04-08T16:13:29;16.40;;;11.30;;
64641;SDS011;59936;51.490;5.436;2023-04-08T16:15:56;13.20;;;10.80;;
64641;SDS011;59936;51.490;5.436;2023-04-08T16:18:23;13.90;;;11.40;;
64641;SDS011;59936;51.490;5.436;2023-04-08T16:20:49;12.60;;;10.50;;
64641;SDS011;59936;51.490;5.436;2023-04-08T16:23:15;11.90;;;9.90;;
64641;SDS011;59936;51.490;5.436;2023-04-08T16:25:41;10.90;;;9.70;;
64641;SDS011;59936;51.490;5.436;2023-04-08T16:28:07;17.10;;;11.10;;
64641;SDS011;59936;51.490;5.436;2023-04-08T16:30:32;13.10;;;9.20;;
64641;SDS011;59936;51.490;5.436;2023-04-08T16:32:58;11.30;;;9.10;;
64641;SDS011;59936;51.490;5.436;2023-04-08T16:35:24;10.10;;;8.40;;
64641;SDS011;59936;51.490;5.436;2023-04-08T16:37:50;10.70;;;8.30;;
64641;SDS011;59936;51.490;5.436;2023-04-08T16:42:42;12.00;;;8.90;;
64641;SDS011;59936;51.490;5.436;2023-04-08T16:47:33;9.70;;;8.30;;
64641;SDS011;59936;51.490;5.436;2023-04-08T16:49:59;9.70;;;8.70;;
64641;SDS011;59936;51.490;5.436;2023-04-08T16:54:51;8.00;;;7.20;;
64641;SDS011;59936;51.490;5.436;2023-04-08T16:57:17;9.90;;;8.10;;
64641;SDS011;59936;51.490;5.436;2023-04-08T16:59:42;7.60;;;6.80;;
64641;SDS011;59936;51.490;5.436;2023-04-08T17:02:08;10.00;;;8.30;;
64641;SDS011;59936;51.490;5.436;2023-04-08T17:04:34;10.30;;;7.20;;
64641;SDS011;59936;51.490;5.436;2023-04-08T17:07:00;9.30;;;7.50;;
64641;SDS011;59936;51.490;5.436;2023-04-08T17:09:26;10.40;;;7.10;;
64641;SDS011;59936;51.490;5.436;2023-04-08T17:11:52;9.00;;;7.30;;
64641;SDS011;59936;51.490;5.436;2023-04-08T17:14:18;8.00;;;6.90;;
64641;SDS011;59936;51.490;5.436;2023-04-08T17:16:43;9.00;;;7.20;;
64641;SDS011;59936;51.490;5.436;2023-04-08T17:19:09;7.50;;;6.50;;
64641;SDS011;59936;51.490;5.436;2023-04-08T17:24:01;9.60;;;6.85;;
64641;SDS011;59936;51.490;5.436;2023-04-08T17:28:52;8.25;;;6.60;;
64641;SDS011;59936;51.490;5.436;2023-04-08T17:33:44;10.20;;;7.95;;
64641;SDS011;59936;51.490;5.436;2023-04-08T17:38:35;12.75;;;7.50;;
64641;SDS011;59936;51.490;5.436;2023-04-08T17:43:28;9.90;;;7.60;;
64641;SDS011;59936;51.490;5.436;2023-04-08T17:48:23;8.70;;;7.60;;
64641;SDS011;59936;51.490;5.436;2023-04-08T17:53:14;10.20;;;7.95;;
64641;SDS011;59936;51.490;5.436;2023-04-08T17:58:06;11.50;;;8.25;;
64641;SDS011;59936;51.490;5.436;2023-04-08T18:02:57;10.40;;;8.15;;
64641;SDS011;59936;51.490;5.436;2023-04-08T18:07:49;11.10;;;9.20;;
64641;SDS011;59936;51.490;5.436;2023-04-08T18:10:15;11.80;;;9.50;;
64641;SDS011;59936;51.490;5.436;2023-04-08T18:15:07;11.05;;;9.60;;
64641;SDS011;59936;51.490;5.436;2023-04-08T18:17:33;15.20;;;10.30;;
64641;SDS011;59936;51.490;5.436;2023-04-08T18:22:24;12.55;;;9.60;;